Time;durP1;ratioP1;P1;durP2;ratioP2;P2;SDS_P1;SDS_P2;PMS_P1;PMS_P2;Temp;Humidity;BMP_temperature;BMP_pressure;BME280_temperature;BME280_humidity;BME280_pressure;Samples;Min_cycle;Max_cycle;Signal;HPM_P1;HPM_P2
2022/05/24 00:01:47;;;;;;;1.77;1.25;;;24.10;99.90;;;;;;5080039;28;20566;-81
2022/05/24 00:04:14;;;;;;;1.55;0.98;;;24.10;99.90;;;;;;5080264;28;20195;-81
2022/05/24 00:06:40;;;;;;;4.68;1.90;;;24.10;99.90;;;;;;5079763;28;20577;-81
2022/05/24 00:09:09;;;;;;;6.35;1.10;;;24.10;99.90;;;;;;5080195;28;20234;-81
2022/05/24 00:11:35;;;;;;;7.63;1.30;;;24.10;99.90;;;;;;5080092;28;20290;-81
2022/05/24 00:14:02;;;;;;;7.72;1.60;;;24.10;99.90;;;;;;5079890;28;20234;-80
2022/05/24 00:16:29;;;;;;;7.43;1.50;;;24.10;99.90;;;;;;5080010;28;20203;-80
2022/05/24 00:18:56;;;;;;;8.80;1.88;;;24.10;99.90;;;;;;5079815;28;20210;-81
2022/05/24 00:21:23;;;;;;;6.53;1.25;;;24.10;99.90;;;;;;5080203;28;20286;-81
2022/05/24 00:23:50;;;;;;;5.97;1.52;;;24.10;99.90;;;;;;5079688;28;20231;-81
2022/05/24 00:26:25;;;;;;;7.38;1.50;;;24.10;99.90;;;;;;5079716;28;20238;-81
2022/05/24 00:28:52;;;;;;;7.15;1.45;;;24.10;99.90;;;;;;5079347;28;20190;-81
2022/05/24 00:31:19;;;;;;;25.08;2.25;;;24.10;99.90;;;;;;5080089;28;20217;-81
2022/05/24 00:33:47;;;;;;;4.50;1.23;;;24.10;99.90;;;;;;5080078;28;20670;-81
2022/05/24 00:36:14;;;;;;;7.32;1.23;;;24.10;99.90;;;;;;5080227;28;20203;-81
2022/05/24 00:38:41;;;;;;;3.90;1.05;;;24.10;99.90;;;;;;5080141;28;20577;-80
2022/05/24 00:41:22;;;;;;;9.43;1.55;;;24.10;99.90;;;;;;5079138;28;20623;-80
2022/05/24 00:43:54;;;;;;;3.25;1.67;;;24.10;99.90;;;;;;5080344;28;20188;-80
2022/05/24 00:46:24;;;;;;;6.13;1.58;;;24.10;99.90;;;;;;5079813;28;20192;-80
2022/05/24 00:48:56;;;;;;;5.55;1.15;;;24.10;99.90;;;;;;5080051;28;20180;-80
2022/05/24 00:51:30;;;;;;;5.80;1.77;;;24.10;99.90;;;;;;5079589;28;20266;-80
2022/05/24 00:53:57;;;;;;;12.25;1.52;;;24.10;99.90;;;;;;5080416;28;20187;-80
2022/05/24 00:56:48;;;;;;;6.03;1.20;;;24.10;99.90;;;;;;5079730;28;20195;-80
2022/05/24 00:59:27;;;;;;;3.30;1.10;;;24.20;99.90;;;;;;5079807;28;20245;-80
2022/05/24 01:01:54;;;;;;;3.65;1.10;;;24.10;99.90;;;;;;5079784;28;20701;-80
2022/05/24 01:04:21;;;;;;;4.45;1.50;;;24.10;99.90;;;;;;5080061;28;20199;-80
2022/05/24 01:06:48;;;;;;;4.00;1.40;;;24.10;99.90;;;;;;5079720;28;20219;-80
2022/05/24 01:09:19;;;;;;;7.47;1.70;;;24.10;99.90;;;;;;5080022;28;20196;-80
2022/05/24 01:11:50;;;;;;;2.42;1.20;;;24.10;99.90;;;;;;5080240;28;20190;-80
2022/05/24 01:14:21;;;;;;;2.97;1.20;;;24.10;99.90;;;;;;5080510;28;20247;-80
2022/05/24 01:16:48;;;;;;;3.60;1.00;;;24.10;99.90;;;;;;5079763;28;20223;-80
2022/05/24 01:19:23;;;;;;;2.10;1.10;;;24.10;99.90;;;;;;5080539;28;20286;-80
2022/05/24 01:21:50;;;;;;;3.25;1.40;;;24.10;99.90;;;;;;5085822;28;20184;-80
2022/05/24 01:24:26;;;;;;;2.00;0.93;;;24.10;99.90;;;;;;5086132;28;20290;-80
2022/05/24 01:26:57;;;;;;;2.03;1.20;;;24.10;99.90;;;;;;5103820;22;20244;-77
2022/05/24 01:29:26;;;;;;;8.52;1.45;;;24.10;99.90;;;;;;5055339;28;20181;-77
2022/05/24 01:37:26;;;;;;;7.45;1.33;;;24.10;99.90;;;;;;5056130;28;20299;-77
2022/05/24 01:39:55;;;;;;;5.10;1.10;;;24.10;99.90;;;;;;5058050;28;20294;-78
2022/05/24 01:42:24;;;;;;;3.72;1.00;;;24.10;99.90;;;;;;5058199;28;20291;-78
2022/05/24 01:44:55;;;;;;;3.15;1.25;;;24.10;99.90;;;;;;5056271;28;20234;-78
2022/05/24 01:47:24;;;;;;;4.20;1.00;;;24.10;99.90;;;;;;5056485;28;20577;-78
2022/05/24 01:49:56;;;;;;;3.85;1.10;;;24.10;99.90;;;;;;5057373;28;20557;-78
2022/05/24 01:52:27;;;;;;;2.55;0.98;;;24.10;99.90;;;;;;5056265;28;20194;-78
2022/05/24 01:55:01;;;;;;;5.35;1.13;;;24.10;99.90;;;;;;5057494;28;20184;-78
2022/05/24 01:57:32;;;;;;;2.90;1.05;;;24.10;99.90;;;;;;5058140;28;20319;-78
2022/05/24 02:00:01;;;;;;;3.92;1.00;;;24.20;99.90;;;;;;5057793;28;20649;-78
2022/05/24 02:02:28;;;;;;;6.70;0.98;;;24.10;99.90;;;;;;5055076;28;20204;-78
2022/05/24 02:04:57;;;;;;;2.03;1.08;;;24.10;99.90;;;;;;5056882;28;20210;-78
2022/05/24 02:07:25;;;;;;;3.15;1.05;;;24.10;99.90;;;;;;5056987;28;20216;-78
2022/05/24 02:09:54;;;;;;;2.70;0.90;;;24.10;99.90;;;;;;5056774;28;20291;-78
2022/05/24 02:12:25;;;;;;;5.63;1.27;;;24.20;99.90;;;;;;5056364;28;20239;-78
2022/05/24 02:14:58;;;;;;;5.68;1.02;;;24.20;99.90;;;;;;5054107;28;20648;-78
2022/05/24 02:17:27;;;;;;;7.70;1.00;;;24.10;99.90;;;;;;5054171;28;20234;-78
2022/05/24 02:19:57;;;;;;;2.40;0.80;;;24.10;99.90;;;;;;5054220;28;20204;-78
2022/05/24 02:22:27;;;;;;;1.30;1.00;;;24.10;99.90;;;;;;5054259;28;20569;-78
2022/05/24 02:24:58;;;;;;;11.38;1.33;;;24.10;99.90;;;;;;5055015;28;20206;-78
2022/05/24 02:27:26;;;;;;;9.93;1.13;;;24.20;99.90;;;;;;5054490;28;20766;-78
2022/05/24 02:29:54;;;;;;;4.05;1.35;;;24.10;99.90;;;;;;5055413;28;20200;-78
2022/05/24 02:32:21;;;;;;;2.92;1.00;;;24.20;99.90;;;;;;5054473;28;20206;-78
2022/05/24 02:34:48;;;;;;;3.20;0.80;;;24.20;99.90;;;;;;5054543;28;20204;-78
2022/05/24 02:37:15;;;;;;;2.58;0.93;;;24.20;99.90;;;;;;5053795;28;20311;-78
2022/05/24 02:42:26;;;;;;;5.00;1.33;;;24.10;99.90;;;;;;5053747;28;20306;-78
2022/05/24 02:44:54;;;;;;;4.15;0.95;;;24.10;99.90;;;;;;5053997;28;20283;-78
2022/05/24 02:47:21;;;;;;;3.33;1.00;;;24.10;99.90;;;;;;5054335;28;20263;-78
2022/05/24 02:49:48;;;;;;;5.72;1.63;;;24.10;99.90;;;;;;5054276;28;20207;-78
2022/05/24 02:52:16;;;;;;;3.38;0.90;;;24.20;99.90;;;;;;5053990;28;20291;-78
2022/05/24 02:54:43;;;;;;;4.28;1.17;;;24.20;99.90;;;;;;5053523;28;20685;-78
2022/05/24 02:57:10;;;;;;;1.45;0.85;;;24.10;99.90;;;;;;5053945;28;20633;-78
2022/05/24 02:59:37;;;;;;;7.50;1.33;;;24.10;99.90;;;;;;5054285;28;20196;-78
2022/05/24 03:02:06;;;;;;;1.10;0.98;;;24.10;99.90;;;;;;5054226;28;20196;-78
2022/05/24 03:04:35;;;;;;;1.88;0.95;;;24.20;99.90;;;;;;5053914;28;20206;-78
2022/05/24 03:09:46;;;;;;;2.60;1.15;;;24.10;99.90;;;;;;5054924;28;20179;-78
2022/05/24 03:14:57;;;;;;;4.70;1.27;;;24.10;99.90;;;;;;5053724;28;20706;-78
2022/05/24 03:17:26;;;;;;;4.40;1.00;;;24.10;99.90;;;;;;5053122;28;20675;-78
2022/05/24 03:19:53;;;;;;;0.98;0.82;;;24.10;99.90;;;;;;5053668;28;20206;-78
2022/05/24 03:22:20;;;;;;;5.07;1.02;;;24.10;99.90;;;;;;5054085;28;20212;-78
2022/05/24 03:24:47;;;;;;;2.30;0.73;;;24.10;99.90;;;;;;5053458;28;20204;-78
2022/05/24 03:27:14;;;;;;;1.17;0.57;;;24.10;99.90;;;;;;5053103;28;20234;-78
2022/05/24 03:29:42;;;;;;;2.83;0.85;;;24.10;99.90;;;;;;5054526;28;20176;-78
2022/05/24 03:32:11;;;;;;;7.80;0.95;;;24.10;99.90;;;;;;5058165;28;20200;-78
2022/05/24 03:34:40;;;;;;;4.05;1.23;;;24.10;99.90;;;;;;5057343;28;20196;-78
2022/05/24 03:37:07;;;;;;;4.70;1.00;;;24.10;99.90;;;;;;5056733;28;20578;-78
2022/05/24 03:39:35;;;;;;;10.43;1.20;;;24.10;99.90;;;;;;5059259;28;20228;-78
2022/05/24 03:42:02;;;;;;;3.25;1.23;;;24.10;99.90;;;;;;5060620;28;20204;-78
2022/05/24 03:44:29;;;;;;;1.35;0.80;;;24.10;99.90;;;;;;5060719;28;20208;-78
2022/05/24 03:46:56;;;;;;;0.77;0.75;;;24.10;99.90;;;;;;5060986;28;20208;-78
2022/05/24 03:49:23;;;;;;;1.30;0.85;;;24.10;99.90;;;;;;5060120;28;20250;-78
2022/05/24 03:51:51;;;;;;;1.80;0.70;;;24.10;99.90;;;;;;5061433;28;20286;-78
2022/05/24 03:54:19;;;;;;;6.60;1.13;;;24.10;99.90;;;;;;5061441;28;20232;-78
2022/05/24 03:59:27;;;;;;;6.80;0.82;;;24.10;99.90;;;;;;5060569;28;20656;-79
2022/05/24 04:01:54;;;;;;;2.97;1.00;;;24.10;99.90;;;;;;5060345;28;20295;-79
2022/05/24 04:04:22;;;;;;;2.67;1.10;;;24.10;99.90;;;;;;5060049;28;20232;-79
2022/05/24 04:06:49;;;;;;;7.22;0.80;;;24.10;99.90;;;;;;5061772;28;20207;-79
2022/05/24 04:09:17;;;;;;;3.83;0.90;;;24.10;99.90;;;;;;5062674;28;20624;-81
2022/05/24 04:11:44;;;;;;;3.88;1.17;;;24.10;99.90;;;;;;5063944;28;20231;-81
2022/05/24 04:14:10;;;;;;;5.85;0.95;;;24.10;99.90;;;;;;5062826;28;20224;-81
2022/05/24 04:16:37;;;;;;;6.38;0.90;;;24.10;99.90;;;;;;5063950;28;20232;-80
2022/05/24 04:19:04;;;;;;;1.48;0.80;;;24.10;99.90;;;;;;5059588;28;20219;-77
2022/05/24 04:21:31;;;;;;;0.68;0.68;;;24.10;99.90;;;;;;5059054;28;20200;-79
2022/05/24 04:23:58;;;;;;;3.40;1.23;;;24.10;99.90;;;;;;5059300;28;20298;-80
2022/05/24 04:26:27;;;;;;;1.92;0.85;;;24.10;99.90;;;;;;5061178;28;20204;-82
2022/05/24 04:28:54;;;;;;;4.38;1.25;;;24.10;99.90;;;;;;5060795;28;20315;-80
2022/05/24 04:31:20;;;;;;;5.93;1.17;;;24.10;99.90;;;;;;5059413;28;20283;-80
2022/05/24 04:33:47;;;;;;;1.48;0.65;;;24.10;99.90;;;;;;5060114;28;20290;-80
2022/05/24 04:36:14;;;;;;;2.65;0.98;;;24.10;99.90;;;;;;5059743;28;20613;-80
2022/05/24 04:38:41;;;;;;;7.18;1.40;;;24.10;99.90;;;;;;5059329;28;20220;-79
2022/05/24 04:43:54;;;;;;;1.92;0.80;;;24.10;99.90;;;;;;5063503;28;20184;-79
2022/05/24 04:46:21;;;;;;;11.10;0.93;;;24.00;99.90;;;;;;5059848;28;20291;-77
2022/05/24 04:48:48;;;;;;;8.25;0.70;;;24.00;99.90;;;;;;5058186;28;20306;-78
2022/05/24 04:51:14;;;;;;;7.13;0.50;;;24.00;99.90;;;;;;5057864;28;20200;-78
2022/05/24 04:53:42;;;;;;;7.55;0.80;;;23.90;99.90;;;;;;5059921;28;20251;-79
2022/05/24 04:56:08;;;;;;;0.32;0.32;;;23.90;99.90;;;;;;5059520;28;20257;-79
2022/05/24 04:58:35;;;;;;;0.50;0.50;;;23.80;99.90;;;;;;5061963;28;20307;-80
2022/05/24 05:01:04;;;;;;;5.60;0.65;;;23.80;99.90;;;;;;5064602;28;20626;-81
2022/05/24 05:03:30;;;;;;;5.95;1.30;;;23.80;99.90;;;;;;5065787;28;20655;-80
2022/05/24 05:05:57;;;;;;;0.73;0.40;;;23.80;99.90;;;;;;5063075;28;20283;-79
2022/05/24 05:08:25;;;;;;;4.35;0.77;;;23.80;99.90;;;;;;5065803;28;20212;-81
2022/05/24 05:10:53;;;;;;;4.18;0.85;;;23.70;99.90;;;;;;5063363;28;20207;-79
2022/05/24 05:13:20;;;;;;;7.53;1.00;;;23.70;99.90;;;;;;5060272;28;20203;-79
2022/05/24 05:15:46;;;;;;;1.85;0.70;;;23.70;99.90;;;;;;5057916;28;20287;-78
2022/05/24 05:18:18;;;;;;;4.32;1.15;;;23.70;99.90;;;;;;5063596;28;20727;-79
2022/05/24 05:20:46;;;;;;;1.15;0.50;;;23.80;99.90;;;;;;5063468;28;20188;-79
2022/05/24 05:23:15;;;;;;;7.50;1.15;;;23.70;99.90;;;;;;5062912;28;20223;-79
2022/05/24 05:25:43;;;;;;;3.30;0.73;;;23.80;99.90;;;;;;5063530;28;20235;-79
2022/05/24 05:28:10;;;;;;;2.58;0.70;;;23.70;99.90;;;;;;5062759;28;20315;-78
2022/05/24 05:33:23;;;;;;;8.43;1.10;;;23.70;99.90;;;;;;5060893;28;20227;-79
2022/05/24 05:35:51;;;;;;;5.40;0.88;;;23.70;99.90;;;;;;5065025;28;20204;-79
2022/05/24 05:38:18;;;;;;;13.20;1.80;;;23.70;99.90;;;;;;5064762;28;20774;-79
2022/05/24 05:40:45;;;;;;;7.00;1.10;;;23.70;99.90;;;;;;5064633;28;20268;-79
2022/05/24 05:43:13;;;;;;;4.63;0.88;;;23.70;99.90;;;;;;5064529;28;20238;-79
2022/05/24 05:45:39;;;;;;;2.10;0.65;;;23.70;99.90;;;;;;5064832;28;20238;-79
2022/05/24 05:48:07;;;;;;;1.55;0.90;;;23.70;99.90;;;;;;5064236;28;20280;-79
2022/05/24 05:50:35;;;;;;;8.25;0.80;;;23.70;99.90;;;;;;5064730;28;20238;-79
2022/05/24 05:53:04;;;;;;;8.90;1.15;;;23.70;99.90;;;;;;5063689;28;20245;-79
2022/05/24 05:55:31;;;;;;;1.92;0.70;;;23.70;99.90;;;;;;5064404;28;20204;-79
2022/05/24 05:57:58;;;;;;;1.55;0.80;;;23.70;99.90;;;;;;5064009;28;20316;-79
2022/05/24 06:00:25;;;;;;;1.30;1.00;;;23.70;99.90;;;;;;5064425;28;20244;-79
2022/05/24 06:02:52;;;;;;;5.28;0.82;;;23.70;99.90;;;;;;5063761;28;20204;-79
2022/05/24 06:05:19;;;;;;;4.18;1.10;;;23.70;99.90;;;;;;5064331;28;20204;-79
2022/05/24 06:07:47;;;;;;;6.78;1.00;;;23.70;99.90;;;;;;5064206;28;20287;-79
2022/05/24 06:10:14;;;;;;;1.52;0.70;;;23.70;99.90;;;;;;5064284;28;20204;-79
2022/05/24 06:12:42;;;;;;;2.80;1.10;;;23.70;99.90;;;;;;5064243;28;20302;-79
2022/05/24 06:15:10;;;;;;;1.95;0.73;;;23.70;99.90;;;;;;5063463;28;20291;-79
2022/05/24 06:17:43;;;;;;;5.68;0.80;;;23.70;99.90;;;;;;5063860;28;20653;-79
2022/05/24 06:20:11;;;;;;;2.92;0.63;;;23.80;99.90;;;;;;5064601;28;20295;-79
2022/05/24 06:22:37;;;;;;;4.65;1.00;;;23.70;99.90;;;;;;5062906;28;20239;-79
2022/05/24 06:25:06;;;;;;;3.85;0.80;;;23.70;99.90;;;;;;5063058;28;20782;-79
2022/05/24 06:27:33;;;;;;;2.20;0.80;;;23.70;99.90;;;;;;5062567;28;20315;-79
2022/05/24 06:30:00;;;;;;;1.95;0.70;;;23.70;99.90;;;;;;5063487;28;20232;-79
2022/05/24 06:32:27;;;;;;;2.45;0.85;;;23.80;99.90;;;;;;5063608;28;20238;-79
2022/05/24 06:34:54;;;;;;;4.80;0.80;;;23.80;99.90;;;;;;5063396;28;20238;-79
2022/05/24 06:37:22;;;;;;;1.75;0.80;;;23.80;99.90;;;;;;5063096;28;20222;-79
2022/05/24 06:39:49;;;;;;;7.88;1.20;;;23.80;99.90;;;;;;5063036;28;20244;-79
2022/05/24 06:42:17;;;;;;;4.32;1.02;;;23.80;99.90;;;;;;5062876;28;20234;-79
2022/05/24 06:44:45;;;;;;;3.30;0.73;;;23.80;99.90;;;;;;5063238;28;20260;-79
2022/05/24 06:47:12;;;;;;;1.85;0.82;;;23.80;99.90;;;;;;5062547;28;20314;-78
2022/05/24 06:49:38;;;;;;;0.60;0.60;;;23.70;99.90;;;;;;5062895;28;20246;-78
2022/05/24 06:52:06;;;;;;;2.15;0.70;;;23.70;99.90;;;;;;5063443;28;20239;-78
2022/05/24 06:54:33;;;;;;;1.85;0.60;;;23.70;99.90;;;;;;5062425;28;20264;-78
2022/05/24 06:57:00;;;;;;;1.45;0.70;;;23.70;99.90;;;;;;5062885;28;20283;-78
2022/05/24 07:02:27;;;;;;;3.28;0.90;;;23.70;99.90;;;;;;5062337;28;20184;-78
2022/05/24 07:04:59;;;;;;;2.13;0.40;;;23.70;99.90;;;;;;5062596;28;20252;-78
2022/05/24 07:07:26;;;;;;;0.73;0.68;;;23.70;99.90;;;;;;5062744;28;20315;-78
2022/05/24 07:09:53;;;;;;;2.15;0.55;;;23.70;99.90;;;;;;5062995;28;20287;-78
2022/05/24 07:12:20;;;;;;;3.60;0.75;;;23.70;99.90;;;;;;5062944;28;20286;-78
2022/05/24 07:14:49;;;;;;;7.15;1.35;;;23.70;99.90;;;;;;5063277;28;20267;-78
2022/05/24 07:17:17;;;;;;;4.28;1.30;;;23.70;99.60;;;;;;5063173;28;20213;-78
2022/05/24 07:19:45;;;;;;;3.20;0.57;;;23.70;99.50;;;;;;5062126;28;20248;-78
2022/05/24 07:22:12;;;;;;;4.60;0.80;;;23.70;99.40;;;;;;5061599;28;20207;-78
2022/05/24 07:24:39;;;;;;;2.20;0.52;;;23.70;99.40;;;;;;5062299;28;20291;-78
2022/05/24 07:27:09;;;;;;;1.95;0.60;;;23.70;98.90;;;;;;5084805;22;20318;-77
2022/05/24 07:29:37;;;;;;;0.52;0.40;;;23.70;98.80;;;;;;5035835;28;20224;-81
2022/05/24 07:32:06;;;;;;;2.10;0.70;;;23.70;98.60;;;;;;5036696;28;20236;-81
2022/05/24 07:34:35;;;;;;;2.17;0.60;;;23.70;98.40;;;;;;5036511;28;20798;-81
2022/05/24 07:37:03;;;;;;;2.33;0.60;;;23.70;98.20;;;;;;5036739;28;20215;-81
2022/05/24 07:39:30;;;;;;;3.60;0.70;;;23.70;98.00;;;;;;5036685;28;20223;-81
2022/05/24 07:47:29;;;;;;;0.90;0.60;;;23.70;97.30;;;;;;5036259;28;20258;-81
2022/05/24 07:49:56;;;;;;;3.33;0.63;;;23.70;97.10;;;;;;5036276;28;20287;-81
2022/05/24 07:52:22;;;;;;;0.57;0.40;;;23.60;97.00;;;;;;5035730;28;20243;-81
2022/05/24 07:54:49;;;;;;;0.65;0.45;;;23.70;96.80;;;;;;5036394;28;20251;-81
2022/05/24 07:57:16;;;;;;;0.30;0.30;;;23.60;96.40;;;;;;5036323;28;21840;-81
2022/05/24 07:59:47;;;;;;;0.40;0.40;;;23.60;96.20;;;;;;5035861;28;20645;-81
2022/05/24 08:02:14;;;;;;;3.70;0.45;;;23.60;96.00;;;;;;5036498;28;20212;-81
2022/05/24 08:04:43;;;;;;;1.13;0.60;;;23.60;95.70;;;;;;5036402;28;20211;-81
2022/05/24 08:07:10;;;;;;;0.90;0.40;;;23.60;95.50;;;;;;5036235;28;20208;-81
2022/05/24 08:09:37;;;;;;;0.93;0.38;;;23.60;95.30;;;;;;5035867;28;20280;-81
2022/05/24 08:12:05;;;;;;;1.75;0.40;;;23.60;95.00;;;;;;5036420;28;20287;-81
2022/05/24 08:14:33;;;;;;;0.30;0.30;;;23.60;94.70;;;;;;5037479;28;20287;-80
2022/05/24 08:17:00;;;;;;;1.50;0.40;;;23.60;94.60;;;;;;5038006;28;20279;-80
2022/05/24 08:19:27;;;;;;;0.30;0.30;;;23.60;94.50;;;;;;5042046;28;20289;-80
2022/05/24 08:21:55;;;;;;;4.57;0.50;;;23.60;94.20;;;;;;5040281;28;20229;-80
2022/05/24 08:24:23;;;;;;;0.30;0.30;;;23.60;94.00;;;;;;5039236;28;20251;-80
2022/05/24 08:26:49;;;;;;;0.20;0.20;;;23.60;93.70;;;;;;5039768;28;20650;-80
2022/05/24 08:29:16;;;;;;;3.55;0.47;;;23.60;93.50;;;;;;5039928;28;20795;-81
2022/05/24 08:31:43;;;;;;;1.65;0.43;;;23.60;93.40;;;;;;5040117;28;20680;-82
2022/05/24 08:34:10;;;;;;;2.08;0.30;;;23.60;93.10;;;;;;5040597;28;20239;-82
2022/05/24 08:36:37;;;;;;;0.30;0.20;;;23.60;92.90;;;;;;5041431;28;20224;-82
2022/05/24 08:39:05;;;;;;;0.30;0.30;;;23.60;92.70;;;;;;5040434;28;20730;-82
2022/05/24 08:41:44;;;;;;;2.20;0.55;;;23.60;92.50;;;;;;5041434;28;20232;-82
2022/05/24 08:49:56;;;;;;;2.38;0.30;;;23.60;92.10;;;;;;5041402;28;20627;-82
2022/05/24 08:52:25;;;;;;;5.38;0.30;;;23.60;91.70;;;;;;5041495;28;20188;-82
2022/05/24 08:54:54;;;;;;;0.50;0.30;;;23.50;91.60;;;;;;5041383;28;20264;-82
2022/05/24 08:57:31;;;;;;;0.30;0.30;;;23.60;91.40;;;;;;5041595;28;20288;-82
2022/05/24 09:00:04;;;;;;;0.63;0.20;;;23.60;91.10;;;;;;5042372;28;20262;-82
2022/05/24 09:02:30;;;;;;;0.30;0.30;;;23.60;91.00;;;;;;5041739;28;20204;-82
2022/05/24 09:04:57;;;;;;;0.10;0.10;;;23.60;90.80;;;;;;5040701;28;20251;-82
2022/05/24 09:07:33;;;;;;;0.40;0.40;;;23.50;90.50;;;;;;5041828;28;20263;-82
2022/05/24 09:10:07;;;;;;;2.75;0.25;;;23.60;90.30;;;;;;5041183;28;20256;-82
2022/05/24 09:12:45;;;;;;;5.07;0.45;;;23.60;90.10;;;;;;5040951;28;20267;-82
2022/05/24 09:15:21;;;;;;;0.20;0.20;;;23.60;89.70;;;;;;5041528;28;20276;-82
2022/05/24 09:17:58;;;;;;;0.20;0.20;;;23.60;89.10;;;;;;5040971;28;20284;-83
2022/05/24 09:20:32;;;;;;;0.52;0.32;;;23.60;89.10;;;;;;5041740;28;20208;-82
2022/05/24 09:23:03;;;;;;;0.65;0.30;;;23.60;89.30;;;;;;5043953;28;20331;-82
2022/05/24 09:25:31;;;;;;;0.68;0.38;;;23.50;88.10;;;;;;5043211;28;20272;-82
2022/05/24 09:27:59;;;;;;;0.30;0.30;;;23.50;87.60;;;;;;5042697;28;20281;-81
2022/05/24 09:30:36;;;;;;;2.97;0.40;;;23.50;87.10;;;;;;5043482;28;20208;-82
2022/05/24 09:33:20;;;;;;;1.30;0.40;;;23.50;86.80;;;;;;5043846;28;20196;-82
2022/05/24 09:35:49;;;;;;;0.43;0.30;;;23.60;86.20;;;;;;5045112;28;20632;-82
2022/05/24 09:38:17;;;;;;;0.50;0.50;;;23.50;86.80;;;;;;5044683;28;20718;-82
2022/05/24 09:40:49;;;;;;;1.77;0.30;;;23.50;85.70;;;;;;5039674;28;20221;-82
2022/05/24 09:43:20;;;;;;;0.57;0.30;;;23.60;85.40;;;;;;5038869;28;20268;-82
2022/05/24 09:45:48;;;;;;;0.95;0.30;;;23.60;84.80;;;;;;5039402;28;20185;-82
2022/05/24 09:48:23;;;;;;;0.22;0.20;;;23.60;84.40;;;;;;5038917;28;20255;-82
2022/05/24 09:50:52;;;;;;;0.30;0.30;;;23.60;83.70;;;;;;5039665;28;20250;-82
2022/05/24 09:53:20;;;;;;;0.93;0.73;;;23.50;83.30;;;;;;5039887;28;20197;-82
2022/05/24 09:55:52;;;;;;;1.10;0.30;;;23.60;83.40;;;;;;5039653;28;20287;-82
2022/05/24 09:58:26;;;;;;;0.50;0.40;;;23.60;83.20;;;;;;5039868;28;20304;-79
2022/05/24 10:00:56;;;;;;;0.30;0.30;;;23.60;82.60;;;;;;5039507;28;20204;-79
2022/05/24 10:03:27;;;;;;;2.55;0.40;;;23.60;83.20;;;;;;5040249;28;20223;-79
2022/05/24 10:06:13;;;;;;;0.20;0.20;;;23.60;82.00;;;;;;5039198;28;20265;-82
2022/05/24 10:08:44;;;;;;;1.48;0.20;;;23.60;81.60;;;;;;5037038;28;20284;-82
2022/05/24 10:11:23;;;;;;;3.50;0.40;;;23.60;81.40;;;;;;5039912;28;20196;-82
2022/05/24 10:14:08;;;;;;;0.40;0.40;;;23.60;80.80;;;;;;5039772;28;20667;-83
2022/05/24 10:16:40;;;;;;;0.40;0.40;;;23.60;80.60;;;;;;5036478;28;20680;-82
2022/05/24 10:19:25;;;;;;;0.38;0.20;;;23.60;80.30;;;;;;5039811;28;20304;-82
2022/05/24 10:22:03;;;;;;;1.23;0.40;;;23.70;79.90;;;;;;5038968;28;20220;-81
2022/05/24 10:24:39;;;;;;;0.70;0.50;;;23.60;79.50;;;;;;5040007;28;20189;-83
2022/05/24 10:27:14;;;;;;;5.00;0.45;;;23.60;79.00;;;;;;5041145;28;20268;-82
2022/05/24 10:29:51;;;;;;;0.47;0.45;;;23.60;78.20;;;;;;5041340;28;20711;-82
2022/05/24 10:38:19;;;;;;;3.50;0.22;;;23.50;77.10;;;;;;5042219;28;20219;-81
2022/05/24 10:40:56;;;;;;;2.15;0.38;;;23.50;76.70;;;;;;5041876;28;20241;-81
2022/05/24 10:43:58;;;;;;;2.05;0.50;;;23.50;76.30;;;;;;5042824;28;20188;-80
2022/05/24 10:46:34;;;;;;;0.30;0.30;;;23.60;75.90;;;;;;5034885;28;20252;-80
2022/05/24 10:49:10;;;;;;;3.50;0.50;;;23.60;76.50;;;;;;5038175;28;20311;-79
2022/05/24 10:51:47;;;;;;;8.07;0.93;;;23.60;75.30;;;;;;5036340;28;20574;-81
2022/05/24 10:54:24;;;;;;;2.63;0.52;;;23.60;74.90;;;;;;5035793;28;20181;-79
2022/05/24 10:56:58;;;;;;;0.52;0.40;;;23.60;74.70;;;;;;5034949;28;20192;-80
2022/05/24 10:59:45;;;;;;;3.55;0.40;;;23.60;74.30;;;;;;5035643;28;20276;-80
2022/05/24 11:02:21;;;;;;;4.53;0.43;;;23.70;74.10;;;;;;5035619;28;20580;-80
2022/05/24 11:04:53;;;;;;;2.83;0.60;;;23.60;73.80;;;;;;5035066;28;20279;-80
2022/05/24 11:07:22;;;;;;;0.30;0.30;;;23.60;73.60;;;;;;5037538;28;20310;-79
2022/05/24 11:09:57;;;;;;;6.68;0.82;;;23.60;73.20;;;;;;5036766;28;20284;-79
2022/05/24 11:12:29;;;;;;;2.15;0.38;;;23.70;72.80;;;;;;5036243;28;20180;-79
2022/05/24 11:15:02;;;;;;;1.55;0.30;;;23.70;72.40;;;;;;5036609;28;20277;-79
2022/05/24 11:17:29;;;;;;;1.27;0.40;;;23.60;72.00;;;;;;5038032;28;20225;-80
2022/05/24 11:19:57;;;;;;;0.52;0.30;;;23.60;71.70;;;;;;5038898;28;20347;-80
2022/05/24 11:22:29;;;;;;;1.65;0.38;;;23.60;71.70;;;;;;5036955;28;20288;-79
2022/05/24 11:25:11;;;;;;;1.17;0.40;;;23.70;71.70;;;;;;5036758;28;20196;-79
2022/05/24 11:27:40;;;;;;;4.47;0.30;;;23.70;71.50;;;;;;5037893;28;20315;-79
2022/05/24 11:30:19;;;;;;;9.85;0.93;;;23.70;71.30;;;;;;5038531;28;20630;-78
2022/05/24 11:32:50;;;;;;;6.20;0.47;;;23.70;70.80;;;;;;5037221;28;20205;-79
2022/05/24 11:35:29;;;;;;;1.92;0.40;;;23.70;70.80;;;;;;5043756;28;20189;-80
2022/05/24 11:38:10;;;;;;;2.50;0.40;;;23.70;70.40;;;;;;5042107;28;20288;-79
2022/05/24 11:40:40;;;;;;;2.70;0.88;;;23.70;70.30;;;;;;5040915;28;20233;-79
2022/05/24 11:43:09;;;;;;;13.35;1.25;;;23.70;70.00;;;;;;5041112;28;20189;-79
2022/05/24 11:46:03;;;;;;;7.25;0.65;;;23.70;69.60;;;;;;5042317;28;20612;-80
2022/05/24 11:48:48;;;;;;;2.22;0.50;;;23.70;69.00;;;;;;5041736;28;20288;-80
2022/05/24 11:51:37;;;;;;;10.25;0.70;;;23.70;68.80;;;;;;5043347;28;20201;-80
2022/05/24 11:54:07;;;;;;;10.35;1.13;;;23.70;68.50;;;;;;5044664;28;20236;-80
2022/05/24 11:56:36;;;;;;;6.25;0.70;;;23.70;68.50;;;;;;5043902;28;20236;-79
2022/05/24 11:59:11;;;;;;;3.10;0.50;;;23.70;68.20;;;;;;5042747;28;20296;-79
2022/05/24 12:01:48;;;;;;;2.60;0.95;;;23.70;68.00;;;;;;5043016;28;20209;-79
2022/05/24 12:10:41;;;;;;;3.10;0.60;;;23.70;67.40;;;;;;5033152;28;20232;-79
2022/05/24 12:13:38;;;;;;;1.52;0.50;;;23.70;67.00;;;;;;5045476;28;20664;-79
2022/05/24 12:16:09;;;;;;;3.92;0.75;;;23.70;66.90;;;;;;5044555;28;20188;-78
2022/05/24 12:18:54;;;;;;;4.95;0.40;;;23.70;66.90;;;;;;5043140;28;20221;-78
2022/05/24 12:22:03;;;;;;;5.78;0.50;;;23.80;66.70;;;;;;5043478;28;20350;-78
2022/05/24 12:24:47;;;;;;;1.05;0.50;;;23.80;66.30;;;;;;5044195;28;20212;-80
2022/05/24 12:27:19;;;;;;;1.48;0.30;;;23.70;66.10;;;;;;5043177;28;20276;-81
2022/05/24 12:29:50;;;;;;;7.00;0.50;;;23.70;66.10;;;;;;5042867;28;20221;-81
2022/05/24 12:32:18;;;;;;;1.55;0.30;;;23.70;65.70;;;;;;5042709;28;20180;-81
2022/05/24 12:34:48;;;;;;;2.70;0.52;;;23.80;65.80;;;;;;5042129;28;20326;-80
2022/05/24 12:37:23;;;;;;;0.77;0.38;;;23.80;65.80;;;;;;5043793;28;20228;-80
2022/05/24 12:40:13;;;;;;;0.75;0.50;;;23.80;65.90;;;;;;5042967;28;20185;-80
2022/05/24 12:42:46;;;;;;;0.65;0.65;;;23.80;65.40;;;;;;5044235;28;20212;-80
2022/05/24 12:45:17;;;;;;;0.98;0.60;;;23.80;65.60;;;;;;5042402;28;20205;-81
2022/05/24 12:47:51;;;;;;;2.25;0.52;;;23.80;65.40;;;;;;5042938;28;20221;-81
2022/05/24 12:50:37;;;;;;;0.68;0.40;;;23.80;65.30;;;;;;5043412;28;20189;-81
2022/05/24 12:53:08;;;;;;;0.52;0.40;;;23.80;64.90;;;;;;5043211;28;20185;-81
2022/05/24 12:58:36;;;;;;;0.30;0.30;;;23.80;64.80;;;;;;5043009;28;20262;-80
2022/05/24 13:01:20;;;;;;;0.95;0.30;;;23.80;64.60;;;;;;5042808;28;20288;-80
2022/05/24 13:04:08;;;;;;;0.40;0.38;;;23.80;64.50;;;;;;5041292;28;20584;-81
2022/05/24 13:06:41;;;;;;;1.10;0.30;;;23.80;64.40;;;;;;5040044;28;20682;-82
2022/05/24 13:09:24;;;;;;;1.92;0.40;;;23.80;64.30;;;;;;5040206;28;20301;-82
2022/05/24 13:11:54;;;;;;;2.72;0.60;;;23.80;64.10;;;;;;5039695;28;20231;-81
2022/05/24 13:14:40;;;;;;;2.92;0.60;;;23.80;64.10;;;;;;5038914;28;20189;-81
2022/05/24 13:17:09;;;;;;;1.67;0.40;;;23.80;63.80;;;;;;5039917;28;20246;-81
2022/05/24 13:19:52;;;;;;;0.38;0.32;;;23.80;64.00;;;;;;5039771;28;20711;-81
2022/05/24 13:22:21;;;;;;;1.67;0.40;;;23.80;63.70;;;;;;5039451;28;20205;-81
2022/05/24 13:25:00;;;;;;;0.30;0.30;;;23.80;63.70;;;;;;5039937;28;20211;-81
2022/05/24 13:27:48;;;;;;;1.17;0.30;;;23.80;63.40;;;;;;5040147;28;20291;-81
2022/05/24 13:35:48;;;;;;;1.70;0.30;;;23.80;63.40;;;;;;5039604;28;20188;-82
2022/05/24 13:38:24;;;;;;;1.30;0.40;;;23.70;63.20;;;;;;5041454;28;20227;-82
2022/05/24 13:40:53;;;;;;;1.08;0.32;;;23.80;63.20;;;;;;5039624;28;20255;-82
2022/05/24 13:43:37;;;;;;;0.90;0.30;;;23.80;63.10;;;;;;5039305;28;20750;-82
2022/05/24 13:46:08;;;;;;;1.65;0.70;;;23.80;62.90;;;;;;5039350;28;20291;-81
2022/05/24 13:48:42;;;;;;;1.10;0.68;;;23.80;63.00;;;;;;5040465;28;20217;-81
2022/05/24 13:51:17;;;;;;;2.55;0.30;;;23.80;62.90;;;;;;5043053;28;20182;-82
2022/05/24 13:53:46;;;;;;;3.03;0.60;;;23.80;63.60;;;;;;5043970;28;20188;-82
2022/05/24 13:56:18;;;;;;;3.53;0.88;;;23.80;62.80;;;;;;5043407;28;20212;-82
2022/05/24 13:58:48;;;;;;;1.13;0.57;;;23.80;62.80;;;;;;5040591;28;20217;-80
2022/05/24 14:01:26;;;;;;;0.75;0.30;;;23.80;62.80;;;;;;5038687;28;20316;-80